Time;durP1;ratioP1;P1;durP2;ratioP2;P2;SDS_P1;SDS_P2;PMS_P1;PMS_P2;Temp;Humidity;BMP_temperature;BMP_pressure;BME280_temperature;BME280_humidity;BME280_pressure;Samples;Min_cycle;Max_cycle;Signal;HPM_P1;HPM_P2
2023/08/04 00:00:29;;;;;;;9.45;6.40;;;16.50;99.90;;;;;;5135689;27;20204;-90
2023/08/04 00:03:03;;;;;;;12.20;6.28;;;16.60;99.90;;;;;;5135983;27;20205;-90
2023/08/04 00:05:34;;;;;;;9.15;5.30;;;16.70;99.90;;;;;;5136304;27;20190;-89
2023/08/04 00:08:05;;;;;;;10.15;6.05;;;16.80;99.90;;;;;;5135800;27;20225;-89
2023/08/04 00:10:36;;;;;;;10.27;6.45;;;16.80;99.90;;;;;;5141932;27;20202;-89
2023/08/04 00:13:07;;;;;;;7.93;5.68;;;16.90;99.90;;;;;;5137186;27;20209;-90
2023/08/04 00:15:40;;;;;;;13.32;6.38;;;17.00;99.90;;;;;;5135086;27;20198;-88
2023/08/04 00:18:11;;;;;;;9.27;5.60;;;17.10;99.90;;;;;;5134999;27;20234;-89
2023/08/04 00:20:43;;;;;;;9.85;6.03;;;17.20;99.90;;;;;;5135417;27;20194;-89
2023/08/04 00:23:14;;;;;;;9.63;6.15;;;17.30;99.90;;;;;;5118159;27;20198;-89
2023/08/04 00:25:45;;;;;;;10.68;5.50;;;17.40;99.90;;;;;;5135845;27;20197;-88
2023/08/04 00:28:16;;;;;;;11.15;6.30;;;17.50;99.90;;;;;;5134809;27;20233;-88
2023/08/04 00:30:49;;;;;;;9.75;5.15;;;17.60;99.90;;;;;;5135175;27;20209;-88
2023/08/04 00:33:19;;;;;;;9.48;5.20;;;17.70;99.90;;;;;;5133567;27;20220;-87
2023/08/04 00:35:51;;;;;;;13.95;6.03;;;17.60;99.90;;;;;;5134622;27;20241;-87
2023/08/04 00:38:21;;;;;;;8.38;5.43;;;17.60;99.90;;;;;;5134582;27;20229;-88
2023/08/04 00:40:53;;;;;;;7.97;5.32;;;17.80;99.90;;;;;;5116378;27;20280;-87
2023/08/04 00:43:23;;;;;;;9.20;5.13;;;17.90;99.90;;;;;;5136781;27;20202;-88
2023/08/04 00:45:57;;;;;;;11.95;5.20;;;18.00;99.90;;;;;;5135240;27;20246;-88
2023/08/04 00:48:28;;;;;;;9.35;5.28;;;18.10;99.90;;;;;;5134065;27;20595;-88
2023/08/04 00:50:59;;;;;;;10.93;5.25;;;18.20;99.90;;;;;;5135124;27;20546;-88
2023/08/04 00:53:30;;;;;;;8.88;5.10;;;18.20;99.90;;;;;;5135658;27;20554;-89
2023/08/04 00:56:02;;;;;;;7.15;4.50;;;18.30;99.90;;;;;;5117511;27;20198;-90
2023/08/04 00:58:35;;;;;;;14.25;5.18;;;18.50;99.90;;;;;;5134848;27;20661;-87
2023/08/04 01:01:08;;;;;;;8.15;4.75;;;18.50;99.90;;;;;;5146518;27;20205;-88
2023/08/04 01:03:39;;;;;;;11.48;5.10;;;18.60;99.90;;;;;;5136356;27;20200;-87
2023/08/04 01:06:17;;;;;;;7.88;5.00;;;18.70;99.90;;;;;;5146248;27;20661;-86
2023/08/04 01:09:00;;;;;;;8.75;5.03;;;18.80;99.90;;;;;;5141611;27;20225;-85
2023/08/04 01:11:35;;;;;;;9.88;5.05;;;18.90;99.90;;;;;;5141188;27;20201;-87
2023/08/04 01:14:07;;;;;;;12.07;5.43;;;19.10;99.90;;;;;;5134892;27;20201;-87
2023/08/04 01:16:40;;;;;;;9.77;5.10;;;19.10;99.90;;;;;;5134181;27;20236;-88
2023/08/04 01:19:11;;;;;;;9.15;4.78;;;19.20;99.90;;;;;;5137532;27;20284;-87
2023/08/04 01:21:47;;;;;;;7.57;4.57;;;19.30;99.90;;;;;;5135295;27;20194;-88
2023/08/04 01:24:18;;;;;;;8.10;4.30;;;19.40;99.90;;;;;;5135792;27;20219;-88
2023/08/04 01:26:52;;;;;;;7.93;4.82;;;19.60;99.90;;;;;;5150308;27;20200;-88
2023/08/04 01:29:25;;;;;;;7.97;4.55;;;19.70;99.90;;;;;;5151871;27;20739;-89
2023/08/04 01:31:57;;;;;;;9.45;4.97;;;19.80;99.90;;;;;;5155530;27;20205;-87
2023/08/04 01:34:29;;;;;;;7.43;4.70;;;19.90;99.90;;;;;;5144382;27;20217;-84
2023/08/04 01:37:03;;;;;;;7.90;4.82;;;19.90;99.90;;;;;;5144338;27;20200;-86
2023/08/04 01:39:34;;;;;;;12.30;5.45;;;20.00;99.90;;;;;;5135057;27;20182;-87
2023/08/04 01:42:05;;;;;;;9.60;4.90;;;20.20;99.90;;;;;;5134869;27;20194;-88
2023/08/04 01:44:36;;;;;;;12.82;5.32;;;20.30;99.90;;;;;;5134733;27;20570;-88
2023/08/04 01:47:07;;;;;;;11.82;5.25;;;20.10;99.90;;;;;;5149714;27;20213;-88
2023/08/04 01:49:40;;;;;;;8.65;4.45;;;20.20;99.90;;;;;;5153031;27;20225;-87
2023/08/04 01:52:13;;;;;;;8.82;4.60;;;20.30;99.90;;;;;;5149876;27;20204;-87
2023/08/04 01:54:44;;;;;;;9.20;4.13;;;20.30;99.90;;;;;;5133335;27;20656;-88
2023/08/04 01:57:15;;;;;;;7.75;4.53;;;20.40;99.90;;;;;;5134859;27;20535;-87
2023/08/04 01:59:45;;;;;;;8.18;4.00;;;20.50;99.90;;;;;;5133743;27;20194;-87
2023/08/04 02:02:16;;;;;;;7.93;3.60;;;20.60;99.90;;;;;;5134577;27;20204;-88
2023/08/04 02:04:47;;;;;;;6.82;3.75;;;20.60;99.90;;;;;;5142326;27;20185;-90
2023/08/04 02:07:24;;;;;;;7.15;3.60;;;20.70;99.90;;;;;;5133901;27;20198;-90
2023/08/04 02:09:55;;;;;;;10.85;3.40;;;20.80;99.90;;;;;;5138299;27;20226;-91
2023/08/04 02:12:26;;;;;;;5.78;3.60;;;20.80;99.90;;;;;;5135052;27;20189;-89
2023/08/04 02:14:57;;;;;;;8.10;3.47;;;20.90;99.90;;;;;;5134683;27;20291;-89
2023/08/04 02:17:29;;;;;;;7.47;3.55;;;20.90;99.90;;;;;;5117286;27;20696;-89
2023/08/04 02:19:59;;;;;;;10.25;3.80;;;21.00;99.90;;;;;;5136234;27;20198;-88
2023/08/04 02:22:32;;;;;;;7.78;3.28;;;21.10;99.90;;;;;;5150289;27;20190;-87
2023/08/04 02:25:03;;;;;;;8.32;3.70;;;21.20;99.90;;;;;;5152593;27;20193;-87
2023/08/04 02:27:35;;;;;;;6.35;3.40;;;21.30;99.90;;;;;;5157691;27;20212;-89
2023/08/04 02:30:07;;;;;;;9.55;3.35;;;21.40;99.90;;;;;;5130116;27;20248;-89
2023/08/04 02:32:39;;;;;;;7.10;3.10;;;21.40;99.90;;;;;;5134522;27;20201;-90
2023/08/04 02:35:11;;;;;;;7.00;3.30;;;21.50;99.90;;;;;;5133901;27;20194;-89
2023/08/04 02:37:43;;;;;;;5.57;3.00;;;21.60;99.90;;;;;;5133215;27;20190;-90
2023/08/04 02:40:15;;;;;;;4.90;2.83;;;21.70;99.90;;;;;;5133168;27;20204;-89
2023/08/04 02:42:45;;;;;;;6.30;2.75;;;21.80;99.90;;;;;;5142121;27;20197;-89
2023/08/04 02:45:16;;;;;;;4.50;3.13;;;21.80;99.90;;;;;;5138080;27;20205;-88
2023/08/04 02:47:47;;;;;;;7.38;2.90;;;21.90;99.90;;;;;;5148713;27;20243;-87
2023/08/04 02:50:18;;;;;;;6.45;3.08;;;22.00;99.90;;;;;;5143337;27;20221;-89
2023/08/04 02:52:51;;;;;;;7.55;3.08;;;22.00;99.90;;;;;;5137581;27;20284;-89
2023/08/04 02:55:23;;;;;;;6.03;2.95;;;22.00;99.90;;;;;;5159038;27;20197;-89
2023/08/04 02:57:54;;;;;;;4.38;2.63;;;22.10;99.90;;;;;;5141565;27;20277;-90
2023/08/04 03:00:33;;;;;;;6.63;2.67;;;22.20;99.90;;;;;;5149288;27;20661;-89
2023/08/04 03:03:03;;;;;;;7.13;2.97;;;22.20;99.90;;;;;;5139212;27;20194;-91
2023/08/04 03:05:38;;;;;;;5.00;3.00;;;22.20;99.90;;;;;;5141287;27;20271;-90
2023/08/04 03:08:11;;;;;;;6.20;3.13;;;22.30;99.90;;;;;;5135913;27;20632;-87
2023/08/04 03:10:43;;;;;;;7.55;3.22;;;22.40;99.90;;;;;;5148747;27;20193;-88
2023/08/04 03:13:15;;;;;;;4.78;2.92;;;22.40;99.90;;;;;;5139122;27;20198;-88
2023/08/04 03:15:46;;;;;;;8.32;3.28;;;22.50;99.90;;;;;;5138500;27;20655;-88
2023/08/04 03:18:17;;;;;;;6.75;3.50;;;22.50;99.90;;;;;;5157881;27;20221;-90
2023/08/04 03:20:48;;;;;;;6.47;3.67;;;22.50;99.90;;;;;;5158130;27;20200;-89
2023/08/04 03:23:21;;;;;;;9.35;5.60;;;22.50;99.90;;;;;;5157689;27;20212;-87
2023/08/04 03:25:53;;;;;;;9.02;6.50;;;22.60;99.90;;;;;;5158774;27;20197;-89
2023/08/04 03:28:24;;;;;;;9.30;6.43;;;22.50;99.90;;;;;;5144016;27;20190;-90
2023/08/04 03:30:55;;;;;;;7.88;5.05;;;22.60;99.90;;;;;;5135598;27;20190;-89
2023/08/04 03:33:26;;;;;;;7.18;4.63;;;22.60;99.90;;;;;;5141775;27;20660;-87
2023/08/04 03:35:57;;;;;;;8.63;4.80;;;22.60;99.90;;;;;;5156751;27;20195;-89
2023/08/04 03:38:30;;;;;;;8.55;5.63;;;22.70;99.90;;;;;;5159051;27;20197;-88
2023/08/04 03:41:01;;;;;;;7.85;4.50;;;22.70;99.90;;;;;;5146633;27;20187;-88
2023/08/04 03:43:31;;;;;;;7.38;4.55;;;22.70;99.90;;;;;;5146801;27;20194;-89
2023/08/04 03:46:02;;;;;;;8.88;5.45;;;22.70;99.90;;;;;;5136446;27;20214;-90
2023/08/04 03:48:33;;;;;;;7.82;4.45;;;22.70;99.90;;;;;;5144421;27;20566;-90
2023/08/04 03:51:04;;;;;;;10.32;4.05;;;22.60;99.90;;;;;;5155531;27;20201;-89
2023/08/04 03:53:37;;;;;;;6.97;3.42;;;22.60;99.90;;;;;;5143390;27;20189;-88
2023/08/04 03:56:08;;;;;;;4.65;3.38;;;22.50;99.90;;;;;;5135536;27;20198;-89
2023/08/04 03:58:39;;;;;;;5.60;3.10;;;22.50;99.90;;;;;;5135717;27;20236;-88
2023/08/04 04:01:10;;;;;;;5.90;3.13;;;22.50;99.90;;;;;;5134020;27;20202;-85
2023/08/04 04:03:40;;;;;;;4.65;2.90;;;22.50;99.90;;;;;;5133119;27;20244;-85
2023/08/04 04:06:11;;;;;;;5.43;3.03;;;22.50;99.90;;;;;;5134900;27;20212;-85
2023/08/04 04:08:44;;;;;;;4.68;3.28;;;22.40;99.90;;;;;;5134828;27;20232;-86
2023/08/04 04:11:15;;;;;;;6.38;3.20;;;22.40;99.90;;;;;;5134656;27;20242;-85
2023/08/04 04:13:46;;;;;;;8.15;3.50;;;22.30;99.90;;;;;;5134239;27;20665;-85
2023/08/04 04:16:16;;;;;;;3.95;2.75;;;22.30;99.90;;;;;;5133931;27;20660;-85
2023/08/04 04:18:47;;;;;;;6.40;2.83;;;22.20;99.90;;;;;;5134495;27;20198;-85
2023/08/04 04:21:18;;;;;;;6.40;3.15;;;22.20;99.90;;;;;;5133336;27;20251;-84
2023/08/04 04:23:51;;;;;;;7.80;3.53;;;22.20;99.90;;;;;;5134814;27;20196;-85
2023/08/04 04:26:22;;;;;;;5.15;3.28;;;22.20;99.90;;;;;;5134867;27;20185;-86
2023/08/04 04:28:52;;;;;;;10.95;4.13;;;22.20;99.90;;;;;;5134186;27;20218;-86
2023/08/04 04:31:24;;;;;;;8.30;3.75;;;22.10;99.90;;;;;;5116613;27;20201;-87
2023/08/04 04:33:54;;;;;;;5.55;3.33;;;22.00;99.90;;;;;;5134744;27;20572;-86
2023/08/04 04:36:25;;;;;;;9.23;3.67;;;21.90;99.90;;;;;;5145088;27;20201;-86
2023/08/04 04:38:59;;;;;;;6.63;3.20;;;21.90;99.90;;;;;;5154735;27;20201;-86
2023/08/04 04:41:30;;;;;;;5.75;3.45;;;21.90;99.90;;;;;;5155354;27;20561;-85
2023/08/04 04:44:01;;;;;;;4.60;3.45;;;21.90;99.90;;;;;;5155266;27;20207;-87
2023/08/04 04:46:32;;;;;;;7.38;3.45;;;21.80;99.90;;;;;;5154903;27;20200;-86
2023/08/04 04:49:03;;;;;;;5.88;3.53;;;21.80;99.90;;;;;;5154267;27;20556;-86
2023/08/04 04:51:34;;;;;;;6.50;3.38;;;21.80;99.90;;;;;;5155999;27;20250;-85
2023/08/04 04:54:07;;;;;;;8.77;4.07;;;21.80;99.90;;;;;;5160201;27;20202;-84
2023/08/04 04:56:38;;;;;;;8.90;3.80;;;21.80;99.90;;;;;;5152081;27;20280;-83
2023/08/04 04:59:09;;;;;;;7.68;3.92;;;21.70;99.90;;;;;;5159538;27;20215;-85
2023/08/04 05:01:39;;;;;;;6.07;3.75;;;21.70;99.90;;;;;;5156810;27;20204;-85
2023/08/04 05:04:10;;;;;;;8.13;3.67;;;21.70;99.90;;;;;;5147839;27;20194;-85
2023/08/04 05:06:41;;;;;;;8.07;3.50;;;21.60;99.90;;;;;;5132806;27;20200;-84
2023/08/04 05:09:14;;;;;;;4.82;3.33;;;21.60;99.90;;;;;;5132590;27;20222;-85
2023/08/04 05:11:45;;;;;;;8.70;3.95;;;21.60;99.90;;;;;;5132947;27;20201;-85
2023/08/04 05:14:16;;;;;;;9.93;3.70;;;21.50;99.90;;;;;;5132824;27;20221;-85
2023/08/04 05:16:47;;;;;;;5.65;3.10;;;21.40;99.90;;;;;;5151240;27;20231;-85
2023/08/04 05:19:18;;;;;;;7.28;3.85;;;21.50;99.90;;;;;;5154187;27;20201;-85
2023/08/04 05:21:49;;;;;;;6.68;3.50;;;21.40;99.90;;;;;;5153415;27;20193;-84
2023/08/04 05:24:22;;;;;;;6.82;3.97;;;21.40;99.90;;;;;;5147027;27;20281;-85
2023/08/04 05:26:53;;;;;;;7.00;4.07;;;21.40;99.90;;;;;;5132756;27;20207;-86
2023/08/04 05:29:25;;;;;;;6.07;3.55;;;21.50;99.90;;;;;;5133461;27;20244;-86
2023/08/04 05:31:56;;;;;;;7.38;4.07;;;21.40;99.90;;;;;;5133457;27;20194;-86
2023/08/04 05:34:27;;;;;;;5.70;3.40;;;21.50;99.90;;;;;;5132835;27;20581;-86
2023/08/04 05:36:58;;;;;;;5.97;3.70;;;21.50;99.90;;;;;;5132703;27;20204;-85
2023/08/04 05:39:36;;;;;;;6.22;3.53;;;21.50;99.90;;;;;;5133190;27;20228;-85
2023/08/04 05:42:08;;;;;;;7.18;3.67;;;21.50;99.90;;;;;;5132242;27;20197;-84
2023/08/04 05:44:42;;;;;;;6.78;3.67;;;21.50;99.90;;;;;;5133273;27;20194;-85
2023/08/04 05:47:15;;;;;;;8.38;3.60;;;21.50;99.90;;;;;;5132937;27;20197;-84
2023/08/04 05:49:49;;;;;;;6.90;4.18;;;21.50;99.90;;;;;;5142232;27;20575;-85
2023/08/04 05:52:20;;;;;;;7.22;4.15;;;21.50;99.90;;;;;;5152743;27;20686;-85
2023/08/04 05:54:57;;;;;;;6.53;4.00;;;21.60;99.90;;;;;;5152920;27;20198;-86
2023/08/04 05:57:28;;;;;;;7.57;4.00;;;21.60;99.90;;;;;;5153183;27;20200;-86
2023/08/04 05:59:59;;;;;;;7.60;3.88;;;21.60;99.90;;;;;;5151470;27;20197;-85
2023/08/04 06:02:30;;;;;;;6.93;3.97;;;21.60;99.90;;;;;;5152248;27;20196;-85
2023/08/04 06:05:27;;;;;;;5.47;3.80;;;21.70;99.90;;;;;;5151955;27;20198;-84
2023/08/04 06:39:44;;;;;;;8.02;3.30;;;22.00;99.90;;;;;;4762229;29;20215;-85
2023/08/04 06:42:16;;;;;;;5.88;3.08;;;21.90;99.90;;;;;;5015449;27;20224;-87
2023/08/04 06:44:47;;;;;;;5.20;3.00;;;21.60;99.90;;;;;;5135594;27;20239;-87
2023/08/04 06:47:19;;;;;;;6.28;3.30;;;21.50;99.90;;;;;;5138056;27;20191;-88
2023/08/04 06:49:52;;;;;;;7.32;3.25;;;21.30;99.90;;;;;;5137044;27;20225;-86
2023/08/04 06:52:23;;;;;;;8.00;3.10;;;21.10;99.90;;;;;;5136993;27;20198;-86
2023/08/04 06:54:56;;;;;;;6.10;3.20;;;20.90;99.90;;;;;;5136996;27;20652;-84
2023/08/04 06:57:28;;;;;;;7.97;3.55;;;20.80;99.90;;;;;;5133230;27;20675;-86
2023/08/04 07:00:00;;;;;;;8.70;3.42;;;20.70;99.90;;;;;;5132989;27;20684;-86
2023/08/04 07:02:31;;;;;;;6.38;3.15;;;20.50;99.90;;;;;;5137056;27;20255;-88
2023/08/04 07:05:03;;;;;;;6.55;3.38;;;20.40;99.90;;;;;;5142038;27;20262;-85
2023/08/04 07:07:35;;;;;;;8.90;3.63;;;20.40;99.90;;;;;;5144587;27;20213;-86
2023/08/04 07:10:11;;;;;;;7.40;3.90;;;20.30;99.90;;;;;;5138078;27;20227;-86
2023/08/04 07:12:43;;;;;;;9.88;4.18;;;20.20;99.90;;;;;;5156032;27;20222;-86
2023/08/04 07:15:14;;;;;;;8.45;3.97;;;20.10;99.90;;;;;;5133433;27;20198;-84
2023/08/04 07:17:45;;;;;;;9.35;4.05;;;20.10;99.90;;;;;;5132377;27;20229;-83
2023/08/04 07:20:16;;;;;;;11.00;4.55;;;19.90;99.90;;;;;;5131912;28;20189;-85
2023/08/04 07:22:47;;;;;;;6.53;3.90;;;19.90;99.90;;;;;;5131917;28;20712;-85
2023/08/04 07:25:21;;;;;;;7.68;4.20;;;19.80;99.90;;;;;;5150405;27;20230;-85
2023/08/04 07:27:52;;;;;;;7.95;4.28;;;19.70;99.90;;;;;;5156210;27;20196;-85
2023/08/04 07:30:23;;;;;;;8.27;4.10;;;19.70;99.90;;;;;;5144951;28;20224;-86
2023/08/04 07:32:54;;;;;;;8.50;4.28;;;19.60;99.90;;;;;;5136116;27;20198;-85
2023/08/04 07:35:28;;;;;;;7.05;4.18;;;19.60;99.90;;;;;;5133295;27;20279;-86
2023/08/04 07:37:59;;;;;;;7.97;4.13;;;19.50;99.90;;;;;;5148670;27;20193;-86
2023/08/04 07:40:32;;;;;;;8.93;4.60;;;19.50;99.90;;;;;;5157318;27;20205;-85
2023/08/04 07:43:04;;;;;;;8.48;4.80;;;19.50;99.90;;;;;;5157549;27;20613;-86
2023/08/04 07:45:40;;;;;;;7.75;4.40;;;19.40;99.90;;;;;;5155437;27;20189;-86
2023/08/04 07:48:11;;;;;;;8.75;4.80;;;19.40;99.90;;;;;;5156399;27;20197;-85
2023/08/04 07:50:43;;;;;;;8.48;6.90;;;19.40;99.90;;;;;;5147098;27;20691;-86
2023/08/04 07:53:14;;;;;;;10.13;5.10;;;19.40;99.90;;;;;;5138652;27;20609;-85
2023/08/04 07:55:57;;;;;;;7.40;3.95;;;19.40;99.90;;;;;;5141361;27;20208;-86
2023/08/04 07:58:29;;;;;;;7.63;4.20;;;19.40;99.90;;;;;;5136175;27;20691;-85
2023/08/04 08:01:00;;;;;;;7.03;4.38;;;19.30;99.90;;;;;;5145327;27;20204;-85
2023/08/04 08:03:31;;;;;;;9.73;4.38;;;19.20;99.90;;;;;;5138335;27;20189;-87
2023/08/04 08:06:02;;;;;;;7.30;3.92;;;19.20;99.90;;;;;;5146400;27;20208;-85
2023/08/04 08:08:33;;;;;;;7.63;3.90;;;19.20;99.90;;;;;;5147126;27;20221;-86
2023/08/04 08:11:11;;;;;;;7.43;4.00;;;19.20;99.90;;;;;;5136398;27;20287;-86
2023/08/04 08:13:42;;;;;;;6.85;3.90;;;19.20;99.90;;;;;;5134047;27;20201;-85
2023/08/04 08:16:14;;;;;;;6.97;3.72;;;19.10;99.90;;;;;;5133281;27;20648;-84
2023/08/04 08:18:46;;;;;;;6.75;4.30;;;19.10;99.90;;;;;;5133995;27;20234;-84
2023/08/04 08:21:17;;;;;;;8.80;3.75;;;19.10;99.90;;;;;;5147491;27;20205;-84
2023/08/04 08:23:47;;;;;;;7.05;3.53;;;19.10;99.90;;;;;;5136995;27;20194;-85
2023/08/04 08:26:20;;;;;;;5.18;3.58;;;19.10;99.90;;;;;;5133776;27;20201;-85
2023/08/04 08:28:51;;;;;;;7.68;3.55;;;19.10;99.90;;;;;;5133406;27;20225;-86
2023/08/04 08:31:22;;;;;;;6.07;3.22;;;19.10;99.90;;;;;;5134065;27;20248;-86
2023/08/04 08:33:53;;;;;;;8.43;3.42;;;19.10;99.90;;;;;;5133117;27;20285;-86
2023/08/04 08:36:24;;;;;;;5.05;3.30;;;19.10;99.90;;;;;;5133138;27;20186;-86
2023/08/04 08:38:54;;;;;;;7.20;3.53;;;19.10;99.90;;;;;;5133735;27;20278;-87
2023/08/04 08:41:28;;;;;;;11.30;3.90;;;19.10;99.90;;;;;;5136996;27;20200;-85
2023/08/04 08:43:59;;;;;;;5.43;2.95;;;19.00;99.90;;;;;;5137104;27;20194;-86
2023/08/04 08:46:31;;;;;;;6.40;3.22;;;18.90;99.90;;;;;;5138213;27;20201;-87
2023/08/04 08:49:04;;;;;;;6.70;3.55;;;19.00;99.90;;;;;;5134812;27;20198;-85
2023/08/04 08:51:35;;;;;;;7.13;3.13;;;18.90;99.90;;;;;;5154155;27;20220;-85
2023/08/04 08:54:08;;;;;;;6.22;3.20;;;18.90;99.90;;;;;;5142776;27;20277;-85
2023/08/04 08:56:41;;;;;;;5.38;3.25;;;18.90;99.90;;;;;;5134129;27;20220;-85
2023/08/04 08:59:12;;;;;;;8.15;3.35;;;18.90;99.90;;;;;;5133873;27;20198;-85
2023/08/04 09:01:42;;;;;;;6.80;3.17;;;18.90;99.90;;;;;;5133592;27;20545;-85
2023/08/04 09:04:13;;;;;;;6.30;3.30;;;18.90;99.90;;;;;;5133101;27;20575;-85
2023/08/04 09:06:44;;;;;;;7.00;3.47;;;18.90;99.90;;;;;;5139084;27;20189;-84
2023/08/04 09:09:15;;;;;;;8.23;3.05;;;18.90;99.90;;;;;;5154321;27;20223;-86
2023/08/04 09:11:48;;;;;;;5.13;2.63;;;18.80;99.90;;;;;;5153646;27;20252;-85
2023/08/04 09:14:19;;;;;;;6.47;2.97;;;18.80;99.90;;;;;;5139459;27;20202;-86
2023/08/04 09:16:52;;;;;;;7.63;4.40;;;18.90;99.90;;;;;;5132788;27;20202;-85
2023/08/04 09:19:23;;;;;;;5.85;3.90;;;18.80;99.90;;;;;;5132428;27;20226;-85
2023/08/04 09:22:01;;;;;;;5.18;3.15;;;18.80;99.90;;;;;;5131601;27;20281;-85
2023/08/04 09:24:32;;;;;;;4.53;3.13;;;18.80;99.90;;;;;;5132383;27;20190;-85
2023/08/04 09:27:05;;;;;;;5.82;3.15;;;18.80;99.90;;;;;;5132861;27;20212;-86
2023/08/04 09:29:38;;;;;;;8.75;4.50;;;18.80;99.90;;;;;;5132315;27;20194;-85
2023/08/04 09:32:15;;;;;;;6.00;2.95;;;18.80;99.90;;;;;;5152675;27;20229;-85
2023/08/04 09:34:48;;;;;;;6.10;2.90;;;18.70;99.90;;;;;;5153482;27;20207;-86
2023/08/04 09:37:20;;;;;;;5.50;2.97;;;18.70;99.90;;;;;;5153241;27;20215;-86
2023/08/04 09:39:50;;;;;;;19.88;3.45;;;18.70;99.90;;;;;;5151430;27;20674;-86
2023/08/04 09:42:23;;;;;;;5.65;2.75;;;18.70;99.90;;;;;;5152869;27;20563;-84
2023/08/04 09:44:55;;;;;;;4.68;2.97;;;18.70;99.90;;;;;;5152823;27;20196;-85
2023/08/04 09:47:26;;;;;;;7.28;3.80;;;18.70;99.90;;;;;;5134348;27;20216;-85
2023/08/04 09:49:57;;;;;;;7.15;3.33;;;18.70;99.90;;;;;;5144967;27;20646;-85
2023/08/04 09:52:30;;;;;;;8.02;3.95;;;18.70;99.90;;;;;;5132233;27;20194;-85
2023/08/04 09:55:01;;;;;;;6.15;3.70;;;18.70;99.90;;;;;;5132197;27;20707;-85
2023/08/04 09:57:34;;;;;;;7.80;4.38;;;18.60;99.90;;;;;;5138265;27;20208;-85
2023/08/04 10:00:06;;;;;;;9.60;4.82;;;18.60;99.90;;;;;;5133882;27;20209;-84
2023/08/04 10:02:37;;;;;;;8.73;5.40;;;18.60;99.90;;;;;;5135417;27;20210;-86
2023/08/04 10:05:08;;;;;;;11.18;6.22;;;18.60;99.90;;;;;;5134134;27;20204;-86
2023/08/04 10:07:41;;;;;;;12.10;7.45;;;18.60;99.90;;;;;;5136328;27;20214;-84
2023/08/04 10:10:13;;;;;;;15.07;7.47;;;18.50;99.90;;;;;;5134389;27;20544;-84
2023/08/04 10:12:46;;;;;;;17.45;8.95;;;18.60;99.90;;;;;;5146153;27;20250;-85
2023/08/04 10:15:17;;;;;;;16.15;10.20;;;18.50;99.90;;;;;;5153335;27;20181;-86
2023/08/04 10:17:49;;;;;;;16.02;12.00;;;18.50;99.90;;;;;;5153172;27;20228;-86
2023/08/04 10:20:23;;;;;;;17.92;11.93;;;18.50;99.90;;;;;;5153307;27;20199;-87
2023/08/04 10:22:54;;;;;;;22.85;13.48;;;18.50;99.90;;;;;;5134823;27;20209;-86
2023/08/04 10:25:25;;;;;;;20.45;12.63;;;18.50;99.90;;;;;;5132680;27;20190;-86
2023/08/04 10:28:00;;;;;;;17.63;13.07;;;18.50;99.90;;;;;;5131725;27;20201;-87
2023/08/04 10:30:31;;;;;;;20.50;12.77;;;18.50;99.90;;;;;;5132711;27;20295;-86
2023/08/04 10:33:12;;;;;;;16.30;10.73;;;18.40;99.90;;;;;;5133451;27;20198;-87
2023/08/04 10:36:08;;;;;;;15.50;10.77;;;18.50;99.90;;;;;;5133320;28;20716;-87
2023/08/04 10:38:49;;;;;;;16.73;10.75;;;18.40;99.90;;;;;;5142535;27;20208;-84
2023/08/04 10:41:20;;;;;;;17.33;11.93;;;18.40;99.90;;;;;;5150912;27;20201;-87
2023/08/04 10:44:04;;;;;;;13.63;10.15;;;18.40;99.90;;;;;;5152472;27;20193;-87
2023/08/04 10:46:36;;;;;;;12.77;9.30;;;18.40;99.90;;;;;;5145623;27;20194;-84
2023/08/04 10:49:08;;;;;;;10.93;7.70;;;18.40;99.90;;;;;;5131928;27;20406;-86
2023/08/04 10:51:45;;;;;;;11.52;7.63;;;18.30;99.90;;;;;;5131850;27;20209;-85
2023/08/04 10:54:16;;;;;;;10.95;7.65;;;18.30;99.90;;;;;;5133213;27;20221;-85
2023/08/04 10:56:50;;;;;;;11.05;7.32;;;18.30;99.90;;;;;;5135559;27;20277;-86
2023/08/04 10:59:25;;;;;;;10.80;6.60;;;18.30;99.90;;;;;;5133803;27;20194;-85
2023/08/04 11:01:56;;;;;;;8.75;6.40;;;18.30;99.90;;;;;;5132851;27;20190;-86
2023/08/04 11:04:27;;;;;;;8.82;5.65;;;18.20;99.90;;;;;;5140670;27;20540;-86
2023/08/04 11:07:01;;;;;;;8.02;5.28;;;18.20;99.90;;;;;;5140542;27;20652;-85
2023/08/04 11:09:32;;;;;;;6.95;4.25;;;18.10;99.90;;;;;;5142403;27;20202;-85
2023/08/04 11:12:03;;;;;;;5.65;3.90;;;18.10;99.90;;;;;;5139104;27;20217;-85
2023/08/04 11:14:37;;;;;;;6.65;3.63;;;18.10;99.90;;;;;;5142417;27;20194;-87
2023/08/04 11:17:14;;;;;;;6.10;3.40;;;18.20;99.90;;;;;;5140254;27;20324;-86
2023/08/04 11:19:47;;;;;;;5.28;3.33;;;18.10;99.90;;;;;;5135138;27;20688;-85
2023/08/04 11:22:19;;;;;;;5.30;3.38;;;18.20;99.90;;;;;;5135491;27;20198;-86
2023/08/04 11:24:49;;;;;;;5.07;3.20;;;18.20;99.90;;;;;;5144846;27;20284;-85
2023/08/04 11:27:21;;;;;;;5.82;3.40;;;18.20;99.90;;;;;;5155034;27;20510;-85
2023/08/04 11:29:58;;;;;;;5.28;3.40;;;18.20;99.90;;;;;;5155030;27;20203;-86
2023/08/04 11:32:29;;;;;;;4.68;3.20;;;18.20;99.90;;;;;;5155934;27;20227;-85
2023/08/04 11:34:59;;;;;;;4.32;3.08;;;18.20;99.90;;;;;;5152080;27;20189;-85
2023/08/04 11:37:30;;;;;;;6.22;3.45;;;18.10;99.90;;;;;;5135161;27;20287;-86
2023/08/04 11:40:01;;;;;;;5.32;3.70;;;18.10;99.90;;;;;;5135133;27;20189;-86
2023/08/04 11:42:32;;;;;;;3.95;3.00;;;18.10;99.90;;;;;;5136598;27;20285;-85
2023/08/04 11:45:13;;;;;;;3.42;2.97;;;18.10;99.90;;;;;;5136115;27;20590;-86
2023/08/04 11:47:44;;;;;;;6.97;3.60;;;18.10;99.90;;;;;;5137333;27;20198;-85
2023/08/04 11:50:17;;;;;;;3.92;3.30;;;18.10;99.90;;;;;;5148926;27;20239;-86
2023/08/04 11:52:50;;;;;;;5.68;3.28;;;18.10;99.90;;;;;;5143314;27;20239;-86
2023/08/04 11:55:21;;;;;;;4.57;3.30;;;18.00;99.90;;;;;;5135347;27;20548;-86
2023/08/04 11:57:53;;;;;;;5.70;3.40;;;18.00;99.90;;;;;;5138649;27;20267;-86
2023/08/04 12:00:41;;;;;;;6.13;3.72;;;17.90;99.90;;;;;;5152255;27;20617;-86
2023/08/04 12:03:12;;;;;;;4.43;3.15;;;18.00;99.90;;;;;;5151105;27;20197;-86
2023/08/04 12:05:43;;;;;;;4.35;3.00;;;17.90;99.90;;;;;;5140400;27;20676;-87
2023/08/04 12:08:15;;;;;;;4.50;3.15;;;17.90;99.90;;;;;;5139849;27;20213;-87
2023/08/04 12:10:46;;;;;;;6.30;3.50;;;17.90;99.90;;;;;;5148114;27;20204;-87
2023/08/04 12:13:35;;;;;;;6.05;3.40;;;17.80;99.90;;;;;;5147536;27;20193;-86
2023/08/04 12:16:08;;;;;;;5.50;3.28;;;17.80;99.90;;;;;;5150493;27;20197;-85
2023/08/04 12:18:41;;;;;;;4.38;3.10;;;17.80;99.90;;;;;;5134581;27;20223;-86
2023/08/04 12:21:12;;;;;;;6.28;3.70;;;17.80;99.90;;;;;;5135256;27;20676;-85
2023/08/04 12:23:50;;;;;;;7.75;3.40;;;17.80;99.90;;;;;;5133392;27;20209;-86
2023/08/04 12:26:23;;;;;;;4.45;3.10;;;17.70;99.90;;;;;;5154322;27;20567;-87
2023/08/04 12:28:54;;;;;;;5.50;3.50;;;17.70;99.90;;;;;;5158710;27;20740;-86
2023/08/04 12:31:27;;;;;;;5.45;3.40;;;17.70;99.90;;;;;;5163084;27;20279;-85
2023/08/04 12:34:06;;;;;;;6.13;3.30;;;17.70;99.90;;;;;;5157798;27;20201;-86
2023/08/04 12:36:37;;;;;;;5.50;3.30;;;17.70;99.90;;;;;;5155385;27;20208;-86
2023/08/04 12:39:09;;;;;;;5.63;3.13;;;17.70;99.90;;;;;;5142869;27;20211;-81
2023/08/04 12:41:41;;;;;;;4.88;3.10;;;17.70;99.90;;;;;;5135403;27;20224;-84
2023/08/04 12:44:12;;;;;;;5.05;3.38;;;17.70;99.90;;;;;;5141667;27;20190;-86
2023/08/04 12:46:56;;;;;;;5.03;2.83;;;17.70;99.90;;;;;;5156740;27;20201;-86
2023/08/04 12:49:39;;;;;;;3.58;3.10;;;17.70;99.90;;;;;;5150398;27;20216;-86
2023/08/04 12:52:10;;;;;;;4.55;3.30;;;17.70;99.90;;;;;;5129479;27;20233;-85
2023/08/04 12:54:41;;;;;;;4.65;3.40;;;17.60;99.90;;;;;;5147760;27;20276;-86
2023/08/04 12:57:13;;;;;;;5.78;3.20;;;17.60;99.90;;;;;;5152440;27;20203;-88
2023/08/04 12:59:43;;;;;;;4.45;3.15;;;17.60;99.90;;;;;;5139303;27;20238;-87
2023/08/04 13:02:18;;;;;;;3.60;2.88;;;17.60;99.90;;;;;;5137185;27;20225;-86
2023/08/04 13:04:49;;;;;;;4.47;3.20;;;17.60;99.90;;;;;;5139972;27;20198;-87
2023/08/04 13:07:20;;;;;;;5.70;3.40;;;17.50;99.90;;;;;;5146241;27;20274;-88
2023/08/04 13:09:54;;;;;;;5.38;3.00;;;17.50;99.90;;;;;;5165057;27;20261;-88
2023/08/04 13:12:26;;;;;;;5.22;3.22;;;17.50;99.90;;;;;;5164380;27;20228;-86
2023/08/04 13:15:00;;;;;;;4.57;3.30;;;17.60;99.90;;;;;;5144659;27;20194;-89
2023/08/04 13:17:43;;;;;;;4.65;3.20;;;17.60;99.90;;;;;;5155172;27;20248;-89
2023/08/04 13:23:21;;;;;;;4.32;3.60;;;17.50;99.90;;;;;;5161016;27;20182;-85
2023/08/04 13:26:06;;;;;;;4.03;3.45;;;17.50;99.90;;;;;;5147288;27;20550;-87
2023/08/04 13:28:38;;;;;;;6.00;3.67;;;17.50;99.90;;;;;;5153562;27;20202;-88
2023/08/04 13:31:13;;;;;;;5.15;3.63;;;17.40;99.90;;;;;;5156641;27;20277;-86
2023/08/04 13:33:48;;;;;;;4.60;3.85;;;17.40;99.90;;;;;;5134041;27;20189;-86
2023/08/04 13:36:22;;;;;;;6.88;4.30;;;17.40;99.90;;;;;;5160724;27;20196;-85
2023/08/04 13:38:58;;;;;;;6.72;4.00;;;17.30;99.90;;;;;;5150625;27;20230;-87
2023/08/04 13:41:32;;;;;;;5.93;4.20;;;17.30;99.90;;;;;;5145209;27;20269;-88
2023/08/04 13:44:09;;;;;;;6.55;4.13;;;17.30;99.90;;;;;;5153313;27;20201;-88
2023/08/04 13:46:46;;;;;;;5.22;4.13;;;17.30;99.90;;;;;;5130528;27;20202;-87